createdAt,value
2018-07-04T15:31:55.747Z,30.30
2018-07-04T15:34:37.580Z,29.70
2018-07-04T15:37:18.081Z,29.50
2018-07-04T15:42:35.492Z,29.00
2018-07-04T15:45:17.050Z,28.80
2018-07-04T15:47:58.851Z,28.70
2018-07-04T15:50:40.372Z,28.50
2018-07-04T15:53:21.651Z,28.40
2018-07-04T15:56:02.935Z,28.30
2018-07-04T15:58:44.251Z,28.20
2018-07-04T16:01:25.751Z,28.20
2018-07-04T16:04:07.032Z,28.10
2018-07-04T16:06:48.591Z,28.10
2018-07-04T16:09:29.652Z,27.90
2018-07-04T16:12:10.873Z,27.90
2018-07-04T16:14:52.333Z,27.90
2018-07-04T16:17:34.671Z,27.80
2018-07-04T16:20:16.251Z,27.90
2018-07-04T16:22:57.631Z,27.90
2018-07-04T16:25:39.071Z,27.80
2018-07-04T16:28:21.133Z,27.80
2018-07-04T16:31:02.803Z,27.80
2018-07-04T16:33:44.293Z,27.70
2018-07-04T16:36:25.491Z,27.60
2018-07-04T16:39:08.291Z,27.60
2018-07-04T16:41:50.091Z,27.50
2018-07-04T16:44:32.154Z,27.50
2018-07-04T16:47:13.231Z,27.50
2018-07-04T16:49:54.692Z,27.50
2018-07-04T16:52:36.511Z,27.50
2018-07-04T16:55:17.511Z,27.50
2018-07-04T16:57:58.871Z,27.50
2018-07-04T17:00:40.596Z,27.50
2018-07-04T17:03:22.715Z,27.50
2018-07-04T17:06:03.892Z,27.50
2018-07-04T17:08:45.211Z,27.50
2018-07-04T17:11:27.011Z,27.50
2018-07-04T17:14:08.791Z,27.50
2018-07-04T17:16:49.731Z,27.50
2018-07-04T17:19:31.231Z,27.50
2018-07-04T17:22:12.151Z,27.60
2018-07-04T17:24:53.290Z,27.60
2018-07-04T17:27:34.230Z,27.50
2018-07-04T17:30:15.191Z,27.50
2018-07-04T17:32:56.353Z,27.50
2018-07-04T17:35:37.751Z,27.50
2018-07-04T17:38:19.211Z,27.40
2018-07-04T17:41:00.339Z,27.40
2018-07-04T17:43:41.611Z,27.40
2018-07-04T17:46:23.710Z,27.40
2018-07-04T17:49:04.090Z,27.40
2018-07-04T17:51:44.474Z,27.40
2018-07-04T17:54:25.714Z,27.40
2018-07-04T17:57:07.611Z,27.40
2018-07-04T17:59:49.132Z,27.40
2018-07-04T18:02:30.591Z,27.30
2018-07-04T18:05:11.971Z,27.30
2018-07-04T18:07:53.391Z,27.30
2018-07-04T18:10:34.431Z,27.20
2018-07-04T18:13:16.192Z,27.20
2018-07-04T18:15:56.532Z,27.20
2018-07-04T18:18:38.112Z,27.20
2018-07-04T18:21:25.198Z,27.20
2018-07-04T18:24:08.492Z,27.20
2018-07-04T18:26:50.375Z,27.20
2018-07-04T18:29:32.071Z,27.30
2018-07-04T18:32:13.111Z,27.30
2018-07-04T18:34:54.391Z,27.30
2018-07-04T18:37:35.791Z,27.10
2018-07-04T18:40:16.971Z,27.00
2018-07-04T18:42:58.770Z,26.90
2018-07-04T18:45:40.553Z,26.90
2018-07-04T18:48:21.595Z,26.90
2018-07-04T18:51:02.612Z,26.90
2018-07-04T18:53:44.433Z,26.80
2018-07-04T18:56:25.578Z,26.70
2018-07-04T18:59:06.135Z,26.60
2018-07-04T19:01:47.972Z,26.60
2018-07-04T19:04:29.517Z,26.40
2018-07-04T19:07:10.511Z,26.40
2018-07-04T19:09:52.371Z,26.30
2018-07-04T19:12:35.411Z,26.20
2018-07-04T19:15:16.933Z,26.10
2018-07-04T19:17:58.573Z,26.00
2018-07-04T19:20:40.271Z,26.00
2018-07-04T19:23:22.792Z,25.90
2018-07-04T19:26:04.132Z,25.80
2018-07-04T19:28:44.971Z,25.70
2018-07-04T19:31:26.451Z,25.60
2018-07-04T19:34:07.011Z,25.50
2018-07-04T19:36:48.431Z,25.50
2018-07-04T19:39:29.491Z,25.50
2018-07-04T19:42:11.346Z,25.40
2018-07-04T19:44:52.559Z,25.30
2018-07-04T19:47:33.870Z,25.20
2018-07-04T19:50:15.352Z,25.00
2018-07-04T19:52:56.692Z,24.90
2018-07-04T19:55:38.211Z,24.90
2018-07-04T19:58:19.751Z,24.80
2018-07-04T20:01:00.952Z,24.80
2018-07-04T20:03:41.891Z,24.70
2018-07-04T20:06:22.751Z,24.70
2018-07-04T20:09:04.091Z,24.60
2018-07-04T20:11:45.650Z,24.60
2018-07-04T20:14:27.431Z,24.50
2018-07-04T20:17:08.311Z,24.50
2018-07-04T20:19:49.751Z,24.50
2018-07-04T20:22:31.291Z,24.50
2018-07-04T20:25:13.327Z,24.50
2018-07-04T20:27:55.212Z,24.50
2018-07-04T20:30:37.071Z,24.50
2018-07-04T20:33:18.450Z,24.50
2018-07-04T20:35:59.730Z,24.50
2018-07-04T20:38:41.751Z,24.50
2018-07-04T20:41:23.331Z,24.40
2018-07-04T20:44:05.111Z,24.30
2018-07-04T20:46:46.131Z,24.30
2018-07-04T20:49:27.772Z,24.30
2018-07-04T20:52:09.213Z,24.30
2018-07-04T20:54:51.032Z,24.20
2018-07-04T20:57:31.872Z,24.10
2018-07-04T21:00:14.071Z,24.10
2018-07-04T21:02:56.632Z,24.10
2018-07-04T21:05:37.971Z,24.00
2018-07-04T21:08:19.999Z,24.00
2018-07-04T21:11:01.278Z,24.00
2018-07-04T21:16:18.689Z,23.90
2018-07-04T21:19:00.533Z,23.80
2018-07-04T21:21:42.013Z,23.80
2018-07-04T21:24:23.531Z,23.80
2018-07-04T21:27:05.091Z,23.70
2018-07-04T21:29:46.913Z,23.70
2018-07-04T21:32:28.953Z,23.60
2018-07-04T21:35:10.731Z,23.50
2018-07-04T21:37:52.012Z,23.40
2018-07-04T21:40:33.292Z,23.40
2018-07-04T21:43:14.411Z,23.40
2018-07-04T21:45:55.871Z,23.40
2018-07-04T21:48:37.171Z,23.40
2018-07-04T21:51:18.999Z,23.30
2018-07-04T21:54:00.152Z,23.30
2018-07-04T21:56:40.372Z,23.30
2018-07-04T21:59:21.771Z,23.30
2018-07-04T22:02:03.553Z,23.30
2018-07-04T22:04:45.335Z,23.30
2018-07-04T22:07:27.152Z,23.30
2018-07-04T22:10:10.551Z,23.20
2018-07-04T22:12:51.612Z,23.10
2018-07-04T22:15:33.012Z,23.10
2018-07-04T22:18:15.072Z,23.20
2018-07-04T22:20:56.351Z,23.30
2018-07-04T22:23:37.891Z,23.20
2018-07-04T22:26:19.432Z,23.20
2018-07-04T22:29:01.732Z,23.10
2018-07-04T22:31:43.552Z,23.10
2018-07-04T22:34:25.573Z,23.00
2018-07-04T22:37:07.252Z,22.90
2018-07-04T22:39:48.911Z,22.90
2018-07-04T22:42:30.252Z,22.80
2018-07-04T22:45:12.272Z,22.80
2018-07-04T22:47:53.532Z,22.80
2018-07-04T22:50:35.075Z,22.80
2018-07-04T22:53:16.211Z,22.70
2018-07-04T22:55:56.851Z,22.60
2018-07-04T22:58:37.695Z,22.60
2018-07-04T23:01:18.892Z,22.50
2018-07-04T23:04:00.692Z,22.50
2018-07-04T23:06:42.013Z,22.50
2018-07-04T23:09:23.512Z,22.40
2018-07-04T23:12:04.812Z,22.40
2018-07-04T23:14:46.272Z,22.30
2018-07-04T23:17:27.357Z,22.30
2018-07-04T23:20:09.513Z,22.30
2018-07-04T23:22:50.111Z,22.30
2018-07-04T23:25:30.711Z,22.20
2018-07-04T23:28:11.291Z,22.30
2018-07-04T23:30:53.511Z,22.40
2018-07-04T23:33:35.271Z,22.30
2018-07-04T23:36:16.831Z,22.20
2018-07-04T23:38:58.133Z,22.20
2018-07-04T23:41:39.411Z,22.10
2018-07-04T23:44:20.931Z,22.10
2018-07-04T23:47:01.953Z,22.10
2018-07-04T23:49:43.252Z,22.10
2018-07-04T23:52:24.371Z,22.10
2018-07-04T23:55:06.812Z,22.10
2018-07-04T23:57:47.851Z,22.00
